Dayton, OR (97114)

4:58 PM PDT on October 22, 2014 (GMT -0700)
Unionvale | Change Station
CLOSE
Current Station
Personal Weather Station
Location: Dayton, OR
Elevation: 174 ft
Nearby Weather Stations

Elev 174 ft 45.14 °N, 123.06 °W | Updated 3 seconds ago

Rain
Rain
56.3 °F
Feels Like 56.3 °F
N
2.9
Wind Variable Wind from SSE
Gusts 4.7 mph

Today
High -- | Low -- °F
--% Chance of Precip.
Yesterday
High -- | Low -- °F
Precip. -- in
7:37 AM 6:15 PM
Waning Crescent, 1% visible
Pressure 29.71 in
Visibility 4.0 miles
Clouds Overcast 7500 ft
Dew Point 54 °F
Humidity 93%
Rainfall 0.00 in
Snow Depth Not available.
UV 0 out of 12
Pollen .30 out of 12
Air Quality Not available.
Flu Activity Sporadic
METAR KMMV 222353Z AUTO 13005KT 4SM RA BR OVC075 13/13 A2971 RMK AO2 SLP061 P0012 60146 T01330128 10150 20133 56008

More Conditions Fewer Conditions

Pressure 29.71 in
Visibility 4.0 miles
Clouds Overcast 7500 ft
Dew Point 54 °F
Humidity 93%
Rainfall 0.00 in
Snow Depth Not available.
UV 0 out of 12
Pollen .30 out of 12
Air Quality Not available.
Flu Activity Sporadic
METAR KMMV 222353Z AUTO 13005KT 4SM RA BR OVC075 13/13 A2971 RMK AO2 SLP061 P0012 60146 T01330128 10150 20133 56008

More Conditions Fewer Conditions

10-Day Weather Forecast

Almanac

Astronomy

Oct. 22, 2014 Rise Set
Actual Time 7:37 AM PDT 6:15 PM PDT
Civil Twilight 7:07 AM PDT 6:45 PM PDT
Nautical Twilight 6:33 AM PDT 7:19 PM PDT
Astronomical Twilight 5:59 AM PDT 7:53 PM PDT
Moon 6:21 AM PDT 5:47 PM PDT
Length of Visible Light 11h 37m
Length of Day
10h 37m
Tomorrow will be 2m 58s shorter.
Waning Crescent, 1% of the Moon is Illuminated
Today
Waning Crescent
Oct 23
New
Oct 30
First Quarter
Nov 6
Full
Nov 14
Last Quarter

Today's Extremes

State Highs State Lows

Community

WunderPhotos

Upload Photos

1,764,080 photos uploaded!

WunderBlogs® & News

Nearby

Snow Depth

Station Depth Elevation
Seine Creek 0 in 2000 ft
Saddle Mountain 4 in 3250 ft
Peavine Ridge 0 in 3500 ft
Little Meadows 0 in 4000 ft
North Fork 0 in 3120 ft

Earthquake Activity

City Distance Mag. Time & Date
No recent earthquake activity has been reported nearby.
Minimum magnitude displayed is 2.5.

Coastal Water Temperatures

Place Temperature
No Stations Reporting

Nearby Weather Stations